Atkinson, Illinois
Current Conditions -  °F | °C
As of 3:52 AM on Thursday 27 Nov 2014 (Local Time) from KMLI Reporting Station
Overcast Overcast  
Wind Chill: 16°   Ceiling: 2000
Heat Index: 26°   Visibility: 10mi
Dew Point: 20°   Wind: 10mph
Humidity: 78%   Direction: 310°NW
Pressure: 30.34"   Gusts: NA
Location:  41.42°N, 90.02°W
Report Text: KMLI 270952Z AUTO 31009KT 10SM BKN020 OVC025 M03/M07 A3034 RMK AO2 SLP282 T10331067 $
Loading
Personal Weather Stations






























Interactive Weather Map New forecast layout! Learn more

10-Day Weather Forecast

Advertisements
Track Severe Weather on mobile